createdAt,value
2019-03-18T00:00:57.460Z,86.13
2019-03-18T00:01:57.437Z,85.99
2019-03-18T00:02:57.431Z,86.44
2019-03-18T00:03:57.404Z,85.72
2019-03-18T00:04:57.440Z,85.82
2019-03-18T00:05:57.383Z,86.24
2019-03-18T00:06:57.384Z,86.24
2019-03-18T00:07:57.374Z,86.13
2019-03-18T00:08:57.349Z,85.93
2019-03-18T00:09:57.341Z,86.24
2019-03-18T00:10:57.351Z,86.03
2019-03-18T00:11:57.311Z,86.03
2019-03-18T00:12:57.330Z,86.51
2019-03-18T00:13:57.296Z,86.34
2019-03-18T00:15:01.557Z,86.24
2019-03-18T00:15:57.298Z,86.30
2019-03-18T00:16:57.262Z,86.13
2019-03-18T00:17:57.246Z,86.34
2019-03-18T00:18:57.250Z,85.82
2019-03-18T00:19:57.229Z,85.61
2019-03-18T00:20:57.243Z,85.72
2019-03-18T00:21:57.246Z,85.82
2019-03-18T00:22:57.200Z,85.72
2019-03-18T00:23:57.178Z,86.03
2019-03-18T00:24:57.172Z,86.24
2019-03-18T00:25:57.157Z,86.03
2019-03-18T00:26:57.162Z,86.03
2019-03-18T00:27:57.167Z,86.03
2019-03-18T00:28:57.136Z,86.07
2019-03-18T00:29:57.144Z,85.61
2019-03-18T00:30:57.134Z,85.44
2019-03-18T00:31:57.115Z,85.44
2019-03-18T00:32:57.133Z,85.34
2019-03-18T00:33:57.072Z,85.75
2019-03-18T00:34:57.073Z,85.72
2019-03-18T00:35:57.057Z,86.34
2019-03-18T00:36:57.059Z,85.44
2019-03-18T00:37:57.051Z,85.30
2019-03-18T00:38:57.018Z,85.72
2019-03-18T00:39:57.011Z,85.61
2019-03-18T00:40:57.010Z,85.93
2019-03-18T00:41:56.983Z,85.03
2019-03-18T00:42:57.005Z,85.82
2019-03-18T00:43:56.969Z,85.41
2019-03-18T00:44:56.990Z,85.20
2019-03-18T00:45:56.937Z,85.44
2019-03-18T00:46:56.931Z,85.86
2019-03-18T00:47:56.950Z,85.75
2019-03-18T00:48:56.930Z,85.44
2019-03-18T00:49:56.909Z,85.75
2019-03-18T00:50:56.908Z,85.75
2019-03-18T00:51:56.870Z,86.69
2019-03-18T00:52:56.871Z,85.65
2019-03-18T00:53:56.873Z,85.96
2019-03-18T00:54:56.837Z,85.44
2019-03-18T00:55:56.845Z,85.65
2019-03-18T00:56:56.841Z,86.17
2019-03-18T00:57:56.804Z,86.17
2019-03-18T00:58:56.806Z,86.07
2019-03-18T00:59:56.795Z,85.96
2019-03-18T01:00:56.773Z,86.42
2019-03-18T01:01:56.774Z,86.42
2019-03-18T01:02:56.750Z,86.49
2019-03-18T01:03:56.742Z,87.35
2019-03-18T01:04:56.818Z,87.46
2019-03-18T01:05:56.719Z,87.25
2019-03-18T01:06:56.712Z,87.46
2019-03-18T01:07:56.757Z,86.63
2019-03-18T01:08:56.687Z,87.35
2019-03-18T01:09:56.675Z,86.32
2019-03-18T01:10:56.702Z,86.63
2019-03-18T01:11:56.723Z,87.35
2019-03-18T01:12:56.642Z,86.94
2019-03-18T01:13:56.630Z,86.21
2019-03-18T01:14:56.617Z,86.73
2019-03-18T01:15:56.633Z,86.32
2019-03-18T01:16:56.608Z,86.83
2019-03-18T01:17:56.634Z,87.46
2019-03-18T01:18:56.604Z,87.25
2019-03-18T01:19:56.561Z,87.66
2019-03-18T01:20:56.571Z,86.11
2019-03-18T01:21:56.540Z,86.42
2019-03-18T01:22:56.570Z,86.73
2019-03-18T01:23:56.654Z,86.21
2019-03-18T01:24:56.503Z,87.04
2019-03-18T01:25:56.496Z,86.94
2019-03-18T01:26:56.487Z,87.56
2019-03-18T01:27:56.496Z,87.08
2019-03-18T01:28:56.461Z,87.29
2019-03-18T01:29:56.457Z,87.25
2019-03-18T01:30:56.465Z,87.46
2019-03-18T01:31:56.459Z,86.83
2019-03-18T01:32:56.431Z,87.60
2019-03-18T01:33:56.421Z,87.56
2019-03-18T01:34:56.402Z,86.52
2019-03-18T01:35:56.392Z,86.04
2019-03-18T01:36:56.380Z,86.32
2019-03-18T01:37:56.364Z,86.32
2019-03-18T01:38:56.394Z,86.11
2019-03-18T01:39:56.348Z,85.80
2019-03-18T01:40:56.368Z,85.38
2019-03-18T01:41:56.328Z,85.38
2019-03-18T01:42:56.316Z,85.83
2019-03-18T01:43:56.299Z,85.90
2019-03-18T01:44:56.296Z,85.63
2019-03-18T01:45:56.284Z,85.38
2019-03-18T01:46:56.291Z,85.59
2019-03-18T01:47:56.262Z,85.38
2019-03-18T01:48:56.270Z,85.31
2019-03-18T01:49:56.267Z,85.59
2019-03-18T01:50:56.231Z,85.80
2019-03-18T01:51:56.211Z,85.31
2019-03-18T01:52:56.205Z,85.17
2019-03-18T01:53:56.192Z,85.49
2019-03-18T01:54:56.219Z,85.94
2019-03-18T01:55:56.189Z,85.83
2019-03-18T01:56:56.194Z,85.63
2019-03-18T01:57:56.148Z,85.42
2019-03-18T01:58:56.140Z,85.49
2019-03-18T01:59:56.134Z,85.90
2019-03-18T02:00:56.131Z,85.59
2019-03-18T02:01:56.105Z,85.59
2019-03-18T02:02:56.100Z,85.28
2019-03-18T02:03:56.088Z,85.73
2019-03-18T02:04:56.093Z,85.80
2019-03-18T02:05:56.086Z,84.90
2019-03-18T02:06:56.073Z,85.31
2019-03-18T02:07:56.057Z,84.69
2019-03-18T02:08:56.030Z,84.27
2019-03-18T02:09:56.040Z,84.86
2019-03-18T02:10:56.095Z,85.42
2019-03-18T02:11:55.999Z,85.28
2019-03-18T02:12:55.979Z,85.00
2019-03-18T02:13:55.994Z,85.94
2019-03-18T02:14:56.001Z,84.80
2019-03-18T02:15:55.945Z,84.27
2019-03-18T02:16:55.968Z,84.17
2019-03-18T02:17:55.921Z,84.69
2019-03-18T02:18:55.915Z,84.38
2019-03-18T02:19:56.014Z,84.69
2019-03-18T02:20:55.924Z,84.06
2019-03-18T02:21:55.918Z,83.65
2019-03-18T02:22:55.907Z,84.27
2019-03-18T02:23:55.903Z,84.17
2019-03-18T02:24:55.874Z,84.27
2019-03-18T02:25:55.840Z,84.06
2019-03-18T02:26:55.833Z,83.96
2019-03-18T02:27:55.839Z,84.17
2019-03-18T02:28:55.835Z,84.38
2019-03-18T02:29:55.802Z,84.38
2019-03-18T02:30:55.808Z,84.06
2019-03-18T02:31:55.808Z,83.86
2019-03-18T02:32:55.767Z,84.80
2019-03-18T02:33:55.751Z,84.48
2019-03-18T02:34:55.758Z,84.06
2019-03-18T02:35:55.743Z,83.96
2019-03-18T02:36:55.718Z,83.96
2019-03-18T02:37:55.764Z,84.38
2019-03-18T02:38:55.721Z,84.38
2019-03-18T02:39:55.690Z,84.06
2019-03-18T02:40:55.681Z,83.96
2019-03-18T02:41:55.684Z,83.75
2019-03-18T02:42:55.657Z,84.27
2019-03-18T02:43:55.659Z,84.59
2019-03-18T02:44:55.658Z,84.80
2019-03-18T02:46:09.316Z,84.38
2019-03-18T02:46:56.601Z,84.17
2019-03-18T02:47:55.607Z,84.27
2019-03-18T02:48:55.608Z,84.06
2019-03-18T02:49:55.599Z,83.75
2019-03-18T02:50:55.582Z,83.54
2019-03-18T02:51:55.603Z,83.96
2019-03-18T02:52:55.546Z,83.75
2019-03-18T02:53:55.534Z,84.27
2019-03-18T02:54:55.538Z,84.17
2019-03-18T02:55:55.527Z,83.54
2019-03-18T02:56:55.516Z,83.86
2019-03-18T02:57:55.492Z,84.17
2019-03-18T02:58:55.474Z,84.48
2019-03-18T02:59:55.486Z,84.06
2019-03-18T03:00:55.483Z,83.54
2019-03-18T03:01:55.455Z,84.52
2019-03-18T03:02:55.454Z,84.21
2019-03-18T03:03:55.439Z,84.59
2019-03-18T03:04:55.405Z,83.44
2019-03-18T03:05:55.437Z,84.42
2019-03-18T03:06:55.395Z,84.38
2019-03-18T03:07:55.373Z,84.21
2019-03-18T03:08:55.386Z,84.11
2019-03-18T03:09:55.363Z,83.69
2019-03-18T03:10:55.365Z,83.58
2019-03-18T03:11:55.347Z,84.00
2019-03-18T03:12:55.320Z,83.37
2019-03-18T03:13:55.321Z,83.37
2019-03-18T03:14:55.309Z,84.83
2019-03-18T03:15:55.318Z,84.21
2019-03-18T03:16:55.307Z,84.59
2019-03-18T03:17:55.266Z,84.06
2019-03-18T03:18:55.266Z,84.21
2019-03-18T03:19:55.273Z,84.11
2019-03-18T03:20:55.251Z,83.80
2019-03-18T03:21:55.230Z,84.00
2019-03-18T03:22:55.241Z,84.73
2019-03-18T03:23:55.230Z,84.27
2019-03-18T03:24:55.203Z,84.42
2019-03-18T03:25:55.181Z,84.11
2019-03-18T03:26:55.171Z,84.63
2019-03-18T03:27:55.216Z,84.52
2019-03-18T03:28:55.169Z,84.42
2019-03-18T03:29:55.148Z,84.42
2019-03-18T03:30:55.131Z,84.38
2019-03-18T03:31:55.120Z,84.52
2019-03-18T03:32:55.109Z,84.21
2019-03-18T03:33:55.129Z,84.06
2019-03-18T03:34:55.076Z,84.83
2019-03-18T03:35:55.069Z,84.52
2019-03-18T03:36:55.088Z,84.52
2019-03-18T03:37:55.051Z,84.42
2019-03-18T03:38:55.057Z,83.90
2019-03-18T03:39:55.039Z,84.31
2019-03-18T03:40:55.024Z,84.52
2019-03-18T03:41:55.029Z,84.00
2019-03-18T03:42:54.993Z,84.42
2019-03-18T03:43:55.016Z,84.73
2019-03-18T03:44:54.979Z,84.94
2019-03-18T03:45:54.992Z,85.67
2019-03-18T03:46:54.945Z,85.88
2019-03-18T03:47:54.953Z,85.98
2019-03-18T03:48:54.940Z,85.77
2019-03-18T03:49:54.958Z,85.35
2019-03-18T03:50:54.916Z,85.98
2019-03-18T03:51:54.905Z,85.25
2019-03-18T03:52:54.893Z,85.25
2019-03-18T03:53:54.882Z,85.46
2019-03-18T03:54:54.872Z,85.77
2019-03-18T03:55:54.865Z,86.19
2019-03-18T03:56:54.847Z,86.29
2019-03-18T03:57:54.858Z,86.81
2019-03-18T03:58:54.827Z,86.50
2019-03-18T03:59:54.830Z,86.40
2019-03-18T04:00:54.810Z,86.29
2019-03-18T04:01:54.816Z,86.08
2019-03-18T04:02:54.814Z,86.19
2019-03-18T04:03:54.763Z,86.60
2019-03-18T04:04:54.791Z,86.50
2019-03-18T04:05:54.763Z,86.81
2019-03-18T04:06:54.731Z,86.81
2019-03-18T04:07:54.748Z,87.54
2019-03-18T04:08:54.714Z,87.48
2019-03-18T04:09:54.706Z,87.58
2019-03-18T04:10:54.682Z,87.02
2019-03-18T04:11:54.708Z,87.12
2019-03-18T04:12:54.664Z,87.65
2019-03-18T04:13:54.647Z,87.33
2019-03-18T04:14:54.660Z,87.58
2019-03-18T04:15:54.650Z,87.58
2019-03-18T04:17:01.703Z,87.27
2019-03-18T04:17:55.610Z,87.16
2019-03-18T04:18:54.606Z,87.58
2019-03-18T04:19:54.655Z,87.37
2019-03-18T04:20:54.572Z,87.48
2019-03-18T04:21:54.583Z,87.58
2019-03-18T04:22:54.712Z,87.89
2019-03-18T04:23:54.548Z,87.99
2019-03-18T04:24:54.536Z,87.58
2019-03-18T04:25:54.522Z,88.14
2019-03-18T04:26:54.536Z,88.04
2019-03-18T04:27:54.517Z,87.99
2019-03-18T04:28:54.497Z,88.73
2019-03-18T04:29:54.488Z,88.52
2019-03-18T04:30:54.462Z,88.62
2019-03-18T04:31:54.492Z,88.83
2019-03-18T04:32:54.457Z,88.73
2019-03-18T04:33:54.454Z,88.73
2019-03-18T04:34:54.418Z,89.25
2019-03-18T04:35:54.410Z,88.83
2019-03-18T04:36:54.422Z,88.87
2019-03-18T04:37:54.387Z,89.60
2019-03-18T04:38:54.425Z,89.39
2019-03-18T04:39:54.365Z,89.25
2019-03-18T04:40:54.352Z,89.35
2019-03-18T04:41:54.344Z,89.66
2019-03-18T04:42:54.334Z,90.01
2019-03-18T04:43:54.334Z,89.66
2019-03-18T04:44:54.348Z,89.66
2019-03-18T04:45:54.304Z,89.81
2019-03-18T04:46:54.321Z,89.50
2019-03-18T04:47:54.289Z,89.50
2019-03-18T04:48:54.259Z,89.50
2019-03-18T04:49:54.281Z,90.22
2019-03-18T04:50:54.238Z,90.12
2019-03-18T04:51:54.242Z,90.54
2019-03-18T04:52:54.248Z,90.44
2019-03-18T04:53:54.206Z,90.44
2019-03-18T04:54:54.206Z,90.54
2019-03-18T04:55:54.203Z,90.44
2019-03-18T04:56:54.179Z,90.33
2019-03-18T04:57:54.162Z,90.22
2019-03-18T04:58:54.187Z,90.95
2019-03-18T04:59:54.146Z,90.33
2019-03-18T05:00:54.142Z,90.75
2019-03-18T05:01:54.151Z,90.85
2019-03-18T05:02:54.104Z,90.75
2019-03-18T05:03:54.104Z,90.54
2019-03-18T05:04:54.097Z,90.75
2019-03-18T05:05:54.095Z,90.44
2019-03-18T05:06:54.068Z,90.44
2019-03-18T05:07:54.060Z,90.44
2019-03-18T05:08:54.899Z,90.12
2019-03-18T05:09:54.028Z,89.91
2019-03-18T05:10:54.050Z,90.22
2019-03-18T05:11:54.042Z,90.64
2019-03-18T05:12:54.008Z,90.95
2019-03-18T05:13:54.083Z,90.44
2019-03-18T05:14:54.017Z,90.33
2019-03-18T05:15:53.961Z,90.44
2019-03-18T05:16:53.982Z,90.44
2019-03-18T05:17:53.966Z,90.54
2019-03-18T05:18:53.937Z,90.75
2019-03-18T05:19:53.929Z,90.33
2019-03-18T05:20:53.914Z,90.75
2019-03-18T05:21:53.950Z,90.85
2019-03-18T05:22:53.909Z,90.85
2019-03-18T05:23:53.875Z,90.89
2019-03-18T05:24:53.878Z,90.85
2019-03-18T05:25:53.897Z,90.75
2019-03-18T05:26:53.850Z,91.27
2019-03-18T05:27:53.843Z,91.27
2019-03-18T05:28:53.892Z,91.27
2019-03-18T05:29:53.840Z,91.16
2019-03-18T05:30:53.805Z,90.64
2019-03-18T05:31:53.816Z,90.75
2019-03-18T05:32:53.811Z,90.75
2019-03-18T05:33:53.785Z,90.64
2019-03-18T05:34:53.803Z,91.06
2019-03-18T05:35:53.771Z,90.95
2019-03-18T05:36:53.743Z,90.85
2019-03-18T05:37:53.736Z,91.06
2019-03-18T05:38:53.737Z,90.75
2019-03-18T05:39:53.706Z,90.75
2019-03-18T05:40:53.723Z,90.95
2019-03-18T05:41:53.721Z,90.95
2019-03-18T05:42:53.678Z,90.85
2019-03-18T05:43:53.670Z,91.06
2019-03-18T05:44:53.670Z,90.75
2019-03-18T05:45:53.649Z,90.75
2019-03-18T05:46:53.647Z,90.64
2019-03-18T05:47:53.660Z,91.16
2019-03-18T05:48:53.610Z,91.27
2019-03-18T05:49:54.022Z,91.58
2019-03-18T05:50:53.588Z,90.95
2019-03-18T05:51:53.575Z,91.78
2019-03-18T05:52:53.582Z,91.62
2019-03-18T05:53:53.545Z,91.16
2019-03-18T05:54:53.551Z,91.37
2019-03-18T05:55:53.535Z,91.47
2019-03-18T05:56:53.511Z,91.27
2019-03-18T05:57:53.503Z,90.95
2019-03-18T05:58:53.497Z,91.58
2019-03-18T05:59:53.507Z,91.16
2019-03-18T06:00:53.481Z,91.58
2019-03-18T06:01:53.471Z,91.58
2019-03-18T06:02:53.453Z,90.95
2019-03-18T06:03:53.440Z,90.54
2019-03-18T06:04:53.444Z,89.98
2019-03-18T06:05:53.435Z,90.39
2019-03-18T06:06:53.412Z,90.08
2019-03-18T06:07:53.411Z,90.39
2019-03-18T06:08:53.393Z,90.29
2019-03-18T06:09:53.379Z,90.29
2019-03-18T06:10:53.378Z,90.39
2019-03-18T06:11:53.355Z,89.56
2019-03-18T06:12:53.353Z,89.76
2019-03-18T06:13:56.275Z,89.76
2019-03-18T06:14:53.339Z,90.08
2019-03-18T06:15:53.308Z,89.66
2019-03-18T06:16:53.318Z,89.52
2019-03-18T06:17:53.361Z,90.08
2019-03-18T06:18:53.273Z,89.83
2019-03-18T06:19:53.319Z,89.73
2019-03-18T06:20:53.281Z,89.94
2019-03-18T06:21:53.253Z,89.52
2019-03-18T06:22:53.232Z,89.73
2019-03-18T06:23:53.237Z,89.41
2019-03-18T06:24:53.229Z,89.83
2019-03-18T06:25:53.216Z,89.94
2019-03-18T06:26:53.218Z,89.73
2019-03-18T06:27:53.173Z,89.41
2019-03-18T06:28:53.192Z,89.62
2019-03-18T06:29:53.148Z,89.69
2019-03-18T06:30:53.147Z,89.48
2019-03-18T06:31:53.141Z,89.58
2019-03-18T06:32:53.150Z,89.58
2019-03-18T06:33:53.107Z,89.89
2019-03-18T06:34:53.109Z,89.58
2019-03-18T06:35:53.143Z,89.37
2019-03-18T06:36:53.080Z,89.27
2019-03-18T06:37:53.073Z,89.06
2019-03-18T06:38:53.107Z,88.54
2019-03-18T06:39:53.042Z,88.64
2019-03-18T06:40:53.038Z,88.60
2019-03-18T06:41:53.033Z,88.85
2019-03-18T06:42:53.023Z,88.71
2019-03-18T06:43:53.033Z,88.75
2019-03-18T06:44:52.990Z,88.75
2019-03-18T06:45:53.931Z,88.81
2019-03-18T06:46:52.963Z,88.54
2019-03-18T06:48:04.260Z,89.17
2019-03-18T06:48:53.998Z,89.37
2019-03-18T06:49:52.950Z,89.54
2019-03-18T06:50:52.959Z,89.58
2019-03-18T06:51:52.908Z,89.43
2019-03-18T06:52:52.960Z,88.71
2019-03-18T06:53:52.902Z,88.92
2019-03-18T06:54:52.880Z,89.12
2019-03-18T06:55:52.881Z,89.02
2019-03-18T06:56:52.901Z,89.23
2019-03-18T06:57:52.838Z,89.02
2019-03-18T06:58:52.843Z,89.02
2019-03-18T06:59:52.824Z,88.92
2019-03-18T07:00:52.831Z,88.71
2019-03-18T07:01:52.819Z,89.12
2019-03-18T07:02:52.794Z,89.12
2019-03-18T07:03:52.801Z,89.12
2019-03-18T07:04:52.781Z,89.50
2019-03-18T07:05:52.771Z,88.77
2019-03-18T07:06:52.742Z,88.25
2019-03-18T07:07:52.781Z,88.56
2019-03-18T07:08:52.728Z,88.04
2019-03-18T07:09:52.718Z,87.79
2019-03-18T07:10:53.477Z,87.21
2019-03-18T07:11:52.709Z,87.17
2019-03-18T07:12:52.681Z,87.17
2019-03-18T07:13:52.694Z,87.48
2019-03-18T07:14:52.684Z,86.44
2019-03-18T07:15:52.650Z,86.55
2019-03-18T07:16:52.670Z,86.03
2019-03-18T07:17:52.687Z,85.61
2019-03-18T07:18:52.614Z,85.47
2019-03-18T07:19:52.616Z,84.99
2019-03-18T07:20:52.594Z,85.82
2019-03-18T07:21:52.591Z,85.88
2019-03-18T07:22:52.623Z,84.64
2019-03-18T07:23:52.558Z,84.64
2019-03-18T07:24:52.565Z,84.12
2019-03-18T07:25:52.600Z,84.33
2019-03-18T07:26:52.548Z,83.91
2019-03-18T07:27:52.535Z,83.56
2019-03-18T07:28:52.554Z,84.50
2019-03-18T07:29:52.534Z,83.56
2019-03-18T07:30:52.512Z,84.22
2019-03-18T07:31:52.534Z,83.46
2019-03-18T07:32:52.563Z,84.33
2019-03-18T07:33:52.528Z,84.50
2019-03-18T07:34:52.538Z,83.36
2019-03-18T07:35:52.529Z,83.25
2019-03-18T07:36:52.543Z,83.15
2019-03-18T07:37:52.682Z,83.67
2019-03-18T07:38:52.934Z,83.04
2019-03-18T07:39:52.407Z,82.63
2019-03-18T07:40:52.536Z,82.80
2019-03-18T07:41:52.377Z,83.22
2019-03-18T07:42:52.377Z,83.11
2019-03-18T07:43:52.451Z,83.01
2019-03-18T07:44:52.324Z,83.07
2019-03-18T07:45:52.317Z,82.97
2019-03-18T07:46:52.317Z,82.14
2019-03-18T07:47:52.453Z,82.14
2019-03-18T07:48:52.315Z,82.24
2019-03-18T07:49:52.265Z,82.24
2019-03-18T07:50:52.255Z,82.31
2019-03-18T07:51:52.282Z,81.68
2019-03-18T07:52:52.272Z,80.75
2019-03-18T07:53:52.252Z,81.10
2019-03-18T07:54:52.214Z,80.96
2019-03-18T07:55:52.209Z,80.96
2019-03-18T07:56:52.188Z,80.27
2019-03-18T07:57:52.181Z,80.13
2019-03-18T07:58:52.179Z,80.33
2019-03-18T07:59:52.164Z,79.82
2019-03-18T08:00:52.253Z,79.41
2019-03-18T08:01:52.137Z,79.20
2019-03-18T08:02:52.177Z,78.78
2019-03-18T08:03:52.159Z,78.89
2019-03-18T08:04:52.100Z,78.85
2019-03-18T08:05:52.115Z,78.85
2019-03-18T08:06:52.950Z,78.64
2019-03-18T08:07:53.321Z,78.02
2019-03-18T08:08:53.533Z,78.54
2019-03-18T08:09:52.055Z,78.64
2019-03-18T08:10:52.041Z,77.61
2019-03-18T08:11:52.035Z,77.50
2019-03-18T08:12:52.042Z,77.71
2019-03-18T08:13:52.010Z,77.71
2019-03-18T08:14:52.057Z,77.40
2019-03-18T08:15:52.020Z,77.15
2019-03-18T08:16:51.981Z,76.57
2019-03-18T08:17:52.005Z,76.98
2019-03-18T08:18:51.978Z,77.57
2019-03-18T08:19:51.940Z,76.12
2019-03-18T08:20:51.949Z,75.71
2019-03-18T08:21:51.938Z,74.81
2019-03-18T08:22:51.924Z,76.15
2019-03-18T08:23:51.915Z,75.81
2019-03-18T08:24:51.881Z,74.40
2019-03-18T08:25:51.880Z,75.22
2019-03-18T08:26:51.854Z,74.91
2019-03-18T08:27:51.874Z,75.53
2019-03-18T08:28:51.907Z,75.22
2019-03-18T08:29:51.848Z,75.02
2019-03-18T08:30:51.815Z,76.36
2019-03-18T08:31:51.806Z,75.95
2019-03-18T08:32:51.796Z,76.32
2019-03-18T08:33:51.783Z,75.74
2019-03-18T08:34:51.770Z,74.98
2019-03-18T08:35:51.794Z,76.23
2019-03-18T08:36:51.760Z,74.67
2019-03-18T08:37:54.695Z,74.77
2019-03-18T08:38:51.738Z,74.50
2019-03-18T08:39:51.729Z,73.63
2019-03-18T08:40:51.753Z,74.88
2019-03-18T08:41:51.721Z,74.08
2019-03-18T08:42:51.692Z,74.50
2019-03-18T08:43:51.671Z,75.02
2019-03-18T08:44:51.663Z,75.19
2019-03-18T08:45:51.689Z,74.88
2019-03-18T08:46:51.646Z,74.88
2019-03-18T08:47:51.626Z,74.46
2019-03-18T08:48:56.079Z,74.60
2019-03-18T08:49:51.598Z,74.71
2019-03-18T08:50:51.613Z,75.32
2019-03-18T08:51:51.598Z,75.57
2019-03-18T08:52:51.567Z,76.57
2019-03-18T08:53:51.564Z,76.29
2019-03-18T08:54:51.679Z,75.43
2019-03-18T08:55:51.569Z,76.15
2019-03-18T08:56:51.546Z,76.26
2019-03-18T08:57:51.515Z,76.36
2019-03-18T08:58:51.503Z,76.57
2019-03-18T08:59:51.558Z,77.40
2019-03-18T09:00:51.527Z,76.46
2019-03-18T09:01:51.470Z,76.98
2019-03-18T09:02:51.463Z,76.67
2019-03-18T09:03:51.446Z,76.67
2019-03-18T09:04:51.440Z,78.54
2019-03-18T09:05:51.442Z,78.64
2019-03-18T09:06:51.445Z,79.20
2019-03-18T09:07:51.402Z,79.71
2019-03-18T09:08:51.425Z,81.20
2019-03-18T09:09:51.388Z,80.89
2019-03-18T09:10:51.430Z,82.24
2019-03-18T09:11:51.376Z,82.59
2019-03-18T09:12:51.366Z,83.98
2019-03-18T09:13:51.337Z,84.01
2019-03-18T09:14:51.372Z,85.20
2019-03-18T09:15:51.370Z,85.93
2019-03-18T09:16:51.308Z,87.17
2019-03-18T09:17:51.303Z,87.94
2019-03-18T09:18:51.343Z,88.98
2019-03-18T09:19:51.266Z,89.70
2019-03-18T09:20:51.260Z,89.18
2019-03-18T09:21:51.282Z,89.39
2019-03-18T09:22:51.230Z,89.67
2019-03-18T09:23:51.258Z,90.12
2019-03-18T09:24:51.224Z,91.02
2019-03-18T09:25:51.198Z,90.91
2019-03-18T09:27:01.744Z,91.33
2019-03-18T09:27:52.261Z,91.22
2019-03-18T09:28:51.171Z,89.83
2019-03-18T09:29:51.155Z,89.31
2019-03-18T09:30:51.153Z,87.19
2019-03-18T09:31:51.135Z,87.82
2019-03-18T09:32:51.151Z,88.13
2019-03-18T09:33:51.119Z,88.23
2019-03-18T09:34:51.125Z,87.99
2019-03-18T09:35:51.158Z,88.30
2019-03-18T09:36:51.107Z,89.50
2019-03-18T09:37:51.088Z,88.98
2019-03-18T09:38:51.093Z,88.67
2019-03-18T09:39:51.056Z,88.15
2019-03-18T09:40:51.034Z,87.63
2019-03-18T09:41:51.055Z,87.18
2019-03-18T09:42:51.024Z,85.42
2019-03-18T09:43:51.026Z,85.27
2019-03-18T09:44:50.993Z,84.75
2019-03-18T09:45:50.998Z,83.41
2019-03-18T09:46:50.969Z,82.68
2019-03-18T09:47:51.011Z,82.89
2019-03-18T09:48:51.007Z,82.86
2019-03-18T09:49:51.078Z,82.44
2019-03-18T09:50:50.951Z,81.09
2019-03-18T09:51:50.935Z,79.64
2019-03-18T09:52:50.919Z,79.85
2019-03-18T09:53:50.891Z,79.54
2019-03-18T09:54:50.946Z,78.19
2019-03-18T09:55:50.890Z,77.26
2019-03-18T09:56:50.854Z,76.64
2019-03-18T09:57:51.052Z,78.50
2019-03-18T09:58:50.831Z,76.64
2019-03-18T09:59:50.820Z,76.09
2019-03-18T10:00:50.846Z,76.19
2019-03-18T10:01:50.835Z,75.09
2019-03-18T10:02:50.836Z,75.26
2019-03-18T10:03:50.805Z,74.05
2019-03-18T10:04:50.782Z,74.43
2019-03-18T10:05:50.829Z,75.15
2019-03-18T10:06:50.788Z,75.98
2019-03-18T10:07:50.847Z,74.43
2019-03-18T10:08:50.759Z,73.60
2019-03-18T10:09:50.748Z,73.39
2019-03-18T10:10:50.746Z,73.98
2019-03-18T10:11:50.753Z,74.71
2019-03-18T10:12:50.695Z,74.50
2019-03-18T10:13:50.710Z,70.15
2019-03-18T10:14:50.666Z,66.63
2019-03-18T10:15:50.647Z,67.22
2019-03-18T10:16:50.642Z,66.71
2019-03-18T10:17:50.626Z,69.29
2019-03-18T10:18:50.615Z,66.99
2019-03-18T10:19:53.369Z,68.74
2019-03-18T10:20:50.628Z,68.54
2019-03-18T10:21:50.582Z,68.64
2019-03-18T10:22:50.575Z,69.33
2019-03-18T10:23:50.553Z,68.92
2019-03-18T10:24:50.556Z,67.13
2019-03-18T10:25:50.540Z,66.72
2019-03-18T10:26:50.534Z,65.24
2019-03-18T10:27:50.532Z,65.03
2019-03-18T10:28:50.509Z,63.56
2019-03-18T10:29:50.520Z,62.60
2019-03-18T10:30:50.489Z,60.75
2019-03-18T10:31:50.538Z,60.44
2019-03-18T10:32:50.493Z,60.75
2019-03-18T10:33:50.460Z,61.05
2019-03-18T10:34:50.438Z,61.73
2019-03-18T10:35:50.472Z,64.21
2019-03-18T10:36:50.412Z,65.66
2019-03-18T10:37:50.931Z,62.69
2019-03-18T10:38:52.770Z,63.44
2019-03-18T10:39:50.382Z,62.30
2019-03-18T10:40:50.364Z,63.06
2019-03-18T10:41:50.367Z,62.75
2019-03-18T10:42:50.387Z,63.47
2019-03-18T10:43:50.340Z,64.95
2019-03-18T10:44:50.328Z,63.19
2019-03-18T10:45:50.319Z,63.29
2019-03-18T10:46:50.306Z,63.92
2019-03-18T10:47:50.343Z,64.15
2019-03-18T10:48:50.281Z,62.67
2019-03-18T10:49:50.287Z,64.02
2019-03-18T10:50:50.253Z,63.71
2019-03-18T10:51:50.246Z,63.09
2019-03-18T10:52:50.248Z,63.50
2019-03-18T10:53:50.244Z,62.67
2019-03-18T10:54:50.217Z,62.75
2019-03-18T10:55:50.205Z,62.23
2019-03-18T10:56:50.216Z,62.13
2019-03-18T10:57:50.202Z,62.75
2019-03-18T10:58:50.187Z,62.44
2019-03-18T10:59:50.155Z,62.23
2019-03-18T11:00:50.176Z,64.06
2019-03-18T11:01:50.136Z,63.54
2019-03-18T11:02:50.205Z,64.06
2019-03-18T11:03:50.111Z,64.17
2019-03-18T11:04:50.217Z,63.93
2019-03-18T11:05:50.090Z,61.97
2019-03-18T11:06:50.101Z,62.38
2019-03-18T11:07:51.899Z,62.07
2019-03-18T11:08:50.058Z,61.14
2019-03-18T11:09:50.060Z,61.22
2019-03-18T11:10:50.034Z,59.46
2019-03-18T11:11:50.024Z,58.12
2019-03-18T11:12:50.011Z,58.92
2019-03-18T11:13:50.006Z,59.95
2019-03-18T11:14:49.985Z,59.51
2019-03-18T11:15:50.010Z,60.95
2019-03-18T11:16:52.387Z,61.24
2019-03-18T11:17:50.015Z,59.79
2019-03-18T11:18:49.945Z,60.41
2019-03-18T11:19:58.536Z,62.88
2019-03-18T11:20:50.978Z,63.22
2019-03-18T11:21:49.909Z,64.07
2019-03-18T11:22:49.903Z,63.69
2019-03-18T11:23:49.884Z,64.06
2019-03-18T11:24:49.946Z,63.96
2019-03-18T11:25:49.868Z,63.37
2019-03-18T11:26:49.876Z,62.85
2019-03-18T11:27:49.908Z,61.71
2019-03-18T11:28:49.891Z,61.64
2019-03-18T11:29:49.823Z,61.33
2019-03-18T11:30:49.829Z,62.67
2019-03-18T11:31:49.803Z,62.37
2019-03-18T11:32:49.799Z,63.50
2019-03-18T11:33:49.781Z,64.51
2019-03-18T11:34:49.763Z,63.57
2019-03-18T11:35:49.846Z,63.37
2019-03-18T11:36:49.741Z,63.47
2019-03-18T11:37:49.754Z,63.37
2019-03-18T11:38:49.718Z,62.34
2019-03-18T11:39:49.725Z,61.61
2019-03-18T11:40:49.702Z,61.30
2019-03-18T11:41:49.686Z,62.23
2019-03-18T11:42:49.681Z,62.10
2019-03-18T11:43:49.743Z,62.79
2019-03-18T11:44:49.682Z,62.27
2019-03-18T11:45:49.719Z,61.24
2019-03-18T11:46:49.631Z,59.88
2019-03-18T11:47:49.621Z,59.56
2019-03-18T11:48:49.615Z,58.84
2019-03-18T11:49:49.637Z,59.84
2019-03-18T11:50:49.616Z,57.91
2019-03-18T11:51:49.582Z,58.12
2019-03-18T11:52:49.639Z,59.08
2019-03-18T11:53:49.553Z,60.11
2019-03-18T11:54:49.623Z,59.72
2019-03-18T11:55:49.562Z,61.27
2019-03-18T11:56:49.525Z,61.17
2019-03-18T11:57:49.516Z,61.69
2019-03-18T11:58:49.506Z,60.75
2019-03-18T11:59:49.519Z,59.72
2019-03-18T12:00:49.483Z,56.90
2019-03-18T12:01:49.495Z,56.00
2019-03-18T12:02:49.463Z,57.55
2019-03-18T12:03:49.452Z,56.93
2019-03-18T12:04:49.493Z,57.65
2019-03-18T12:05:49.420Z,56.60
2019-03-18T12:06:49.413Z,56.29
2019-03-18T12:07:49.468Z,57.53
2019-03-18T12:08:49.391Z,57.32
2019-03-18T12:09:49.402Z,56.57
2019-03-18T12:10:49.434Z,55.95
2019-03-18T12:11:49.360Z,55.95
2019-03-18T12:12:49.343Z,56.88
2019-03-18T12:13:49.335Z,57.09
2019-03-18T12:14:49.362Z,55.30
2019-03-18T12:15:49.315Z,55.82
2019-03-18T12:16:49.311Z,57.17
2019-03-18T12:17:49.303Z,54.48
2019-03-18T12:18:49.284Z,54.90
2019-03-18T12:19:49.269Z,53.55
2019-03-18T12:20:49.295Z,55.07
2019-03-18T12:21:49.242Z,54.14
2019-03-18T12:22:49.318Z,53.55
2019-03-18T12:23:49.222Z,53.14
2019-03-18T12:24:49.207Z,53.86
2019-03-18T12:25:49.227Z,55.23
2019-03-18T12:26:49.429Z,54.40
2019-03-18T12:27:49.193Z,53.27
2019-03-18T12:28:49.205Z,53.27
2019-03-18T12:29:49.151Z,52.67
2019-03-18T12:30:49.157Z,53.81
2019-03-18T12:31:49.173Z,54.74
2019-03-18T12:32:49.169Z,55.66
2019-03-18T12:33:49.220Z,56.90
2019-03-18T12:34:49.124Z,55.95
2019-03-18T12:35:49.137Z,56.05
2019-03-18T12:36:49.111Z,56.88
2019-03-18T12:37:49.061Z,55.26
2019-03-18T12:38:49.054Z,55.54
2019-03-18T12:39:49.057Z,55.15
2019-03-18T12:40:49.032Z,55.87
2019-03-18T12:41:49.036Z,55.98
2019-03-18T12:42:49.024Z,56.90
2019-03-18T12:43:49.033Z,57.42
2019-03-18T12:44:48.986Z,57.11
2019-03-18T12:45:48.977Z,57.01
2019-03-18T12:46:49.007Z,58.45
2019-03-18T12:47:48.953Z,59.08
2019-03-18T12:48:48.957Z,56.60
2019-03-18T12:49:48.944Z,58.25
2019-03-18T12:50:55.908Z,57.42
2019-03-18T12:51:49.958Z,56.08
2019-03-18T12:52:48.926Z,57.73